Time;durP1;ratioP1;P1;durP2;ratioP2;P2;SDS_P1;SDS_P2;PMS_P1;PMS_P2;Temp;Humidity;BMP_temperature;BMP_pressure;BME280_temperature;BME280_humidity;BME280_pressure;Samples;Min_cycle;Max_cycle;Signal;HPM_P1;HPM_P2
2022/06/09 00:00:35;;;;;;;12.23;11.20;;;16.90;99.90;;;;;;5070837;28;22387;-75
2022/06/09 00:03:29;;;;;;;11.30;10.40;;;16.90;99.90;;;;;;5070427;28;20481;-75
2022/06/09 00:06:18;;;;;;;12.17;11.17;;;16.90;99.90;;;;;;5069626;28;20481;-76
2022/06/09 00:09:17;;;;;;;12.90;11.80;;;16.90;99.90;;;;;;5066597;28;20612;-75
2022/06/09 00:12:09;;;;;;;11.97;11.07;;;16.90;99.90;;;;;;5070504;28;20533;-75
2022/06/09 00:14:58;;;;;;;11.93;10.93;;;16.90;99.90;;;;;;5072525;28;20530;-76
2022/06/09 00:17:49;;;;;;;10.93;10.10;;;16.90;99.90;;;;;;5069749;28;20532;-76
2022/06/09 00:20:42;;;;;;;10.73;9.93;;;16.90;99.90;;;;;;5068112;28;20533;-75
2022/06/09 00:23:30;;;;;;;11.73;10.83;;;16.90;99.90;;;;;;5065869;28;21041;-75
2022/06/09 00:26:31;;;;;;;11.60;10.60;;;16.90;99.90;;;;;;5069269;28;20456;-76
2022/06/09 00:29:26;;;;;;;10.10;9.27;;;16.90;99.90;;;;;;5067664;28;20477;-74
2022/06/09 00:32:17;;;;;;;9.90;9.10;;;17.00;99.90;;;;;;5071254;28;21071;-75
2022/06/09 00:35:11;;;;;;;9.53;8.63;;;16.90;99.90;;;;;;5068805;28;20715;-75
2022/06/09 00:37:59;;;;;;;9.60;8.70;;;16.90;99.90;;;;;;5056176;28;20477;-77
2022/06/09 00:40:47;;;;;;;9.60;8.80;;;16.90;99.90;;;;;;5067523;28;20478;-75
2022/06/09 00:43:50;;;;;;;9.00;8.20;;;16.90;99.90;;;;;;5066680;28;20579;-75
2022/06/09 00:46:41;;;;;;;8.60;7.97;;;16.90;99.90;;;;;;5071235;28;20539;-75
2022/06/09 00:49:36;;;;;;;8.70;8.00;;;16.90;99.90;;;;;;5069806;28;20597;-75
2022/06/09 00:52:33;;;;;;;9.70;8.70;;;16.90;99.90;;;;;;5063070;28;21122;-77
2022/06/09 00:55:35;;;;;;;9.17;8.40;;;16.90;99.90;;;;;;5069533;28;20445;-74
2022/06/09 00:58:40;;;;;;;9.60;8.43;;;16.90;99.90;;;;;;5068350;28;20565;-75
2022/06/09 01:01:32;;;;;;;8.57;7.77;;;16.90;99.90;;;;;;5071469;28;20902;-77
2022/06/09 01:04:32;;;;;;;8.47;7.77;;;16.90;99.90;;;;;;5072265;28;20475;-74
2022/06/09 01:07:27;;;;;;;8.87;8.17;;;16.90;99.90;;;;;;5068290;28;20566;-74
2022/06/09 01:10:16;;;;;;;8.73;7.93;;;16.90;99.90;;;;;;5073345;28;20506;-76
2022/06/09 01:13:04;;;;;;;8.60;7.87;;;16.80;99.90;;;;;;5069536;28;20561;-75
2022/06/09 01:16:25;;;;;;;9.40;8.70;;;16.80;99.90;;;;;;5068423;28;21139;-75
2022/06/09 01:23:08;;;;;;;9.53;8.73;;;16.80;99.90;;;;;;5066118;28;20551;-75
2022/06/09 01:26:18;;;;;;;9.60;8.80;;;16.90;99.90;;;;;;5071435;28;20453;-73
2022/06/09 01:29:30;;;;;;;10.53;9.63;;;16.80;99.90;;;;;;5059311;28;20480;-73
2022/06/09 01:32:32;;;;;;;11.50;10.30;;;16.80;99.90;;;;;;5066632;28;20461;-76
2022/06/09 01:35:38;;;;;;;10.50;9.70;;;16.80;99.90;;;;;;5071064;28;20480;-73
2022/06/09 01:38:30;;;;;;;9.90;9.00;;;16.70;99.90;;;;;;5065386;28;20557;-75
2022/06/09 01:41:18;;;;;;;11.37;10.40;;;16.70;99.90;;;;;;5066455;28;20536;-75
2022/06/09 01:44:07;;;;;;;11.70;10.80;;;16.70;99.90;;;;;;5069787;28;20487;-74
2022/06/09 01:46:56;;;;;;;11.03;10.20;;;16.70;99.90;;;;;;5068182;28;20454;-74
2022/06/09 01:49:53;;;;;;;11.63;10.70;;;16.60;99.90;;;;;;5070755;28;21328;-75
2022/06/09 01:52:43;;;;;;;11.93;11.03;;;16.60;99.90;;;;;;5070788;28;20547;-75
2022/06/09 01:55:44;;;;;;;13.30;12.17;;;16.60;99.90;;;;;;5072994;28;20917;-76
2022/06/09 01:58:41;;;;;;;13.37;12.27;;;16.60;99.90;;;;;;5073401;28;20485;-74
2022/06/09 02:01:46;;;;;;;13.57;12.30;;;16.60;99.90;;;;;;5067840;28;20469;-73
2022/06/09 02:04:40;;;;;;;12.00;11.00;;;16.60;99.90;;;;;;5073078;28;20794;-73
2022/06/09 02:07:39;;;;;;;11.80;10.77;;;16.50;99.90;;;;;;5069028;28;20472;-74
2022/06/09 02:10:38;;;;;;;11.60;10.60;;;16.40;99.90;;;;;;5072754;28;20474;-74
2022/06/09 02:13:39;;;;;;;11.57;10.67;;;16.40;99.90;;;;;;5072620;28;21237;-74
2022/06/09 02:16:28;;;;;;;10.53;9.73;;;16.40;99.90;;;;;;5070866;28;20461;-74
2022/06/09 02:19:28;;;;;;;11.53;10.63;;;16.30;99.90;;;;;;5074309;28;20575;-74
2022/06/09 02:22:27;;;;;;;11.43;9.70;;;16.30;99.90;;;;;;5067754;28;20461;-74
2022/06/09 02:25:40;;;;;;;10.53;9.53;;;16.30;99.90;;;;;;5068966;28;20454;-74
2022/06/09 02:28:28;;;;;;;10.83;9.83;;;16.40;99.90;;;;;;5067045;28;20481;-75
2022/06/09 02:31:20;;;;;;;9.73;9.03;;;16.30;99.90;;;;;;5067741;28;20453;-74
2022/06/09 02:34:09;;;;;;;9.13;8.33;;;16.30;99.90;;;;;;5078320;28;20484;-74
2022/06/09 02:36:57;;;;;;;9.90;9.10;;;16.30;99.90;;;;;;5074447;28;20456;-74
2022/06/09 02:39:51;;;;;;;8.93;8.33;;;16.30;99.90;;;;;;5074267;28;20476;-77
2022/06/09 02:42:55;;;;;;;9.53;8.13;;;16.40;99.90;;;;;;5075273;28;20627;-74
2022/06/09 02:45:57;;;;;;;7.07;6.57;;;16.40;99.90;;;;;;5077496;28;20459;-74
2022/06/09 02:49:05;;;;;;;6.57;6.07;;;16.40;99.90;;;;;;5070990;28;21020;-75
2022/06/09 02:52:12;;;;;;;7.17;6.40;;;16.40;99.90;;;;;;5073215;28;21068;-78
2022/06/09 02:55:02;;;;;;;6.90;6.30;;;16.30;99.90;;;;;;5075021;28;20480;-74
2022/06/09 02:58:05;;;;;;;5.67;5.23;;;16.30;99.90;;;;;;5076497;28;20476;-74
2022/06/09 03:01:02;;;;;;;5.47;5.07;;;16.30;99.90;;;;;;5073727;28;20480;-74
2022/06/09 03:04:33;;;;;;;5.57;5.17;;;16.30;99.90;;;;;;5073623;28;20477;-74
2022/06/09 03:07:24;;;;;;;4.70;4.40;;;16.30;99.90;;;;;;5073595;28;20485;-74
2022/06/09 03:10:31;;;;;;;6.80;4.77;;;16.30;99.90;;;;;;5077283;28;20453;-74
2022/06/09 03:13:21;;;;;;;4.93;4.53;;;16.30;99.90;;;;;;5073470;28;20456;-75
2022/06/09 03:16:10;;;;;;;4.70;4.40;;;16.20;99.90;;;;;;5074663;28;20913;-74
2022/06/09 03:19:24;;;;;;;5.13;4.73;;;16.20;99.90;;;;;;5074365;28;20551;-78
2022/06/09 03:22:36;;;;;;;6.00;5.40;;;16.20;99.90;;;;;;5076275;28;20498;-74
2022/06/09 03:25:50;;;;;;;5.80;5.30;;;16.10;99.90;;;;;;5072951;28;20532;-74
2022/06/09 03:28:39;;;;;;;5.83;5.33;;;16.10;99.90;;;;;;5074345;28;20540;-76
2022/06/09 03:31:27;;;;;;;6.10;5.63;;;16.10;99.90;;;;;;5065416;28;21051;-75
2022/06/09 03:34:20;;;;;;;6.90;6.20;;;16.10;99.90;;;;;;5071700;28;20614;-74
2022/06/09 03:37:12;;;;;;;6.70;6.17;;;16.20;99.90;;;;;;5075765;28;20514;-74
2022/06/09 03:40:15;;;;;;;6.33;5.73;;;16.10;99.90;;;;;;5071222;28;20485;-75
2022/06/09 03:43:09;;;;;;;6.67;6.07;;;16.20;99.90;;;;;;5075680;28;20456;-75
2022/06/09 03:46:03;;;;;;;6.60;6.10;;;16.20;99.90;;;;;;5079144;28;20530;-75
2022/06/09 03:48:54;;;;;;;7.43;6.83;;;16.20;99.90;;;;;;5077123;28;21102;-74
2022/06/09 03:51:45;;;;;;;7.63;6.97;;;16.10;99.90;;;;;;5076963;28;20886;-74
2022/06/09 03:54:37;;;;;;;7.50;6.90;;;16.10;99.90;;;;;;5076717;28;20462;-74
2022/06/09 03:57:30;;;;;;;8.00;7.40;;;16.10;99.90;;;;;;5073394;28;20474;-75
2022/06/09 04:00:21;;;;;;;8.07;7.27;;;16.10;99.90;;;;;;5071166;28;20561;-75
2022/06/09 04:03:09;;;;;;;9.70;8.90;;;16.10;99.90;;;;;;5071534;28;20802;-76
2022/06/09 04:06:05;;;;;;;8.67;7.87;;;16.10;99.90;;;;;;5072716;28;20459;-74
2022/06/09 04:08:58;;;;;;;10.30;9.30;;;16.10;99.90;;;;;;5073184;28;20477;-75
2022/06/09 04:11:47;;;;;;;8.43;7.73;;;16.10;99.90;;;;;;5070468;28;20959;-74
2022/06/09 04:14:50;;;;;;;9.57;8.60;;;16.10;99.90;;;;;;5070737;28;20913;-74
2022/06/09 04:17:51;;;;;;;9.80;8.93;;;16.10;99.90;;;;;;5075202;28;20615;-74
2022/06/09 04:20:40;;;;;;;10.07;9.27;;;16.00;99.90;;;;;;5072553;28;20470;-76
2022/06/09 04:23:28;;;;;;;11.53;10.43;;;16.10;99.90;;;;;;5073967;28;20548;-74
2022/06/09 04:26:27;;;;;;;10.30;9.20;;;16.10;99.90;;;;;;5073338;28;20457;-78
2022/06/09 04:29:30;;;;;;;12.10;11.00;;;16.00;99.90;;;;;;5068589;28;20492;-74
2022/06/09 04:32:19;;;;;;;13.03;11.83;;;16.00;99.90;;;;;;5071086;28;20536;-76
2022/06/09 04:35:12;;;;;;;14.50;13.10;;;16.00;99.90;;;;;;5075286;28;20883;-73
2022/06/09 04:38:14;;;;;;;13.33;12.13;;;16.10;99.90;;;;;;5074823;28;20535;-75
2022/06/09 04:41:09;;;;;;;12.93;11.73;;;16.10;99.90;;;;;;5068568;28;20553;-74
2022/06/09 04:44:15;;;;;;;14.30;12.90;;;16.10;99.90;;;;;;5068445;28;20559;-74
2022/06/09 04:47:09;;;;;;;13.40;12.20;;;16.10;99.90;;;;;;5076154;28;20588;-74
2022/06/09 04:50:05;;;;;;;14.80;13.40;;;16.10;99.90;;;;;;5058773;28;20968;-75
2022/06/09 04:52:58;;;;;;;14.43;12.87;;;16.10;99.90;;;;;;5071169;28;20456;-77
2022/06/09 04:55:49;;;;;;;14.00;12.57;;;16.10;99.90;;;;;;5070611;28;20469;-77
2022/06/09 04:58:40;;;;;;;13.53;12.20;;;16.20;99.90;;;;;;5071108;28;20462;-76
2022/06/09 05:01:31;;;;;;;17.00;13.10;;;16.20;99.90;;;;;;5067023;28;20865;-77
2022/06/09 05:04:25;;;;;;;14.90;13.50;;;16.20;99.90;;;;;;5063285;28;20476;-77
2022/06/09 05:07:19;;;;;;;16.07;14.13;;;16.20;99.90;;;;;;5067344;28;20470;-76
2022/06/09 05:10:11;;;;;;;14.07;12.63;;;16.20;99.90;;;;;;5071966;28;20449;-75
2022/06/09 05:13:06;;;;;;;14.27;12.77;;;16.20;99.90;;;;;;5067874;28;20476;-75
2022/06/09 05:16:01;;;;;;;14.20;12.77;;;16.20;99.90;;;;;;5056397;28;20661;-74
2022/06/09 05:18:54;;;;;;;16.77;14.27;;;16.20;99.90;;;;;;5058059;28;20599;-75
2022/06/09 05:21:42;;;;;;;14.87;13.30;;;16.20;99.90;;;;;;5066741;28;20678;-74
2022/06/09 05:24:32;;;;;;;13.67;12.27;;;16.20;99.90;;;;;;5066344;28;20608;-75
2022/06/09 05:27:21;;;;;;;14.93;13.40;;;16.20;99.90;;;;;;5069542;28;20551;-74
2022/06/09 05:30:15;;;;;;;14.53;13.03;;;16.20;99.90;;;;;;5069258;28;20457;-74
2022/06/09 05:33:04;;;;;;;14.10;12.60;;;16.20;99.90;;;;;;5069951;28;20855;-74
2022/06/09 05:36:15;;;;;;;13.53;11.70;;;16.20;99.90;;;;;;5069339;28;20562;-74
2022/06/09 05:45:54;;;;;;;10.50;9.67;;;16.30;99.90;;;;;;5070720;28;20454;-77
2022/06/09 05:48:47;;;;;;;10.40;9.30;;;16.30;99.90;;;;;;5071781;28;21070;-74
2022/06/09 05:51:36;;;;;;;11.07;9.87;;;16.30;99.90;;;;;;5073984;28;20590;-75
2022/06/09 05:54:38;;;;;;;9.83;8.93;;;16.30;99.90;;;;;;5076213;28;20469;-74
2022/06/09 05:57:29;;;;;;;10.37;9.57;;;16.40;99.90;;;;;;5068875;28;20538;-75
2022/06/09 06:00:19;;;;;;;10.13;9.20;;;16.40;99.90;;;;;;5073558;28;20596;-75
2022/06/09 06:03:11;;;;;;;8.80;8.00;;;16.40;99.90;;;;;;5059332;28;20450;-75
2022/06/09 06:06:41;;;;;;;6.73;6.23;;;16.40;99.90;;;;;;5036432;28;20604;-74
2022/06/09 06:09:33;;;;;;;6.90;6.30;;;16.40;99.90;;;;;;5074786;28;20494;-74
2022/06/09 06:12:21;;;;;;;6.83;6.23;;;16.40;99.90;;;;;;5078636;28;20456;-74
2022/06/09 06:15:10;;;;;;;6.60;6.03;;;16.40;99.90;;;;;;5072202;28;20560;-74
2022/06/09 06:18:02;;;;;;;5.60;5.10;;;16.40;99.90;;;;;;5075449;28;20472;-75
2022/06/09 06:20:51;;;;;;;6.70;5.43;;;16.40;99.90;;;;;;5075970;28;20457;-77
2022/06/09 06:23:40;;;;;;;6.03;5.10;;;16.40;99.90;;;;;;5072135;28;20481;-75
2022/06/09 06:26:28;;;;;;;4.73;4.23;;;16.50;99.90;;;;;;5068388;28;20546;-74
2022/06/09 06:29:19;;;;;;;6.10;5.50;;;16.60;99.90;;;;;;5069914;28;20499;-76
2022/06/09 06:32:08;;;;;;;4.87;4.43;;;16.60;99.90;;;;;;5065102;28;20453;-75
2022/06/09 06:34:59;;;;;;;5.50;5.00;;;16.60;99.90;;;;;;5072418;28;20487;-76
2022/06/09 06:37:47;;;;;;;4.47;4.17;;;16.70;99.90;;;;;;5068500;28;20540;-74
2022/06/09 06:40:36;;;;;;;4.10;3.80;;;16.70;99.90;;;;;;5069306;28;20957;-76
2022/06/09 06:43:24;;;;;;;5.00;4.60;;;16.80;99.90;;;;;;5075966;28;20555;-74
2022/06/09 06:46:13;;;;;;;4.90;4.50;;;16.80;99.90;;;;;;5072569;28;20980;-74
2022/06/09 06:49:05;;;;;;;4.90;3.90;;;16.80;99.90;;;;;;5069356;28;20876;-74
2022/06/09 06:51:56;;;;;;;4.30;4.00;;;16.80;99.90;;;;;;5078203;28;20449;-76
2022/06/09 06:54:44;;;;;;;4.13;3.70;;;16.80;99.90;;;;;;5070332;28;20881;-76
2022/06/09 06:57:33;;;;;;;3.87;3.57;;;16.80;99.90;;;;;;5075674;28;20523;-74
2022/06/09 07:00:24;;;;;;;4.43;4.00;;;16.90;99.90;;;;;;5072868;28;20501;-78
2022/06/09 07:03:12;;;;;;;5.23;3.70;;;16.90;99.90;;;;;;5073502;28;20508;-75
2022/06/09 07:06:18;;;;;;;4.10;3.40;;;16.90;99.90;;;;;;5074012;28;20453;-75
2022/06/09 07:09:07;;;;;;;3.47;3.27;;;16.90;99.90;;;;;;5076968;28;20481;-74
2022/06/09 07:11:56;;;;;;;3.77;3.50;;;16.90;99.90;;;;;;5077226;28;20508;-75
2022/06/09 07:14:44;;;;;;;3.87;3.67;;;17.00;99.90;;;;;;5074263;28;20988;-79
2022/06/09 07:17:32;;;;;;;3.70;3.40;;;17.00;99.90;;;;;;5074283;28;20889;-74
2022/06/09 07:20:21;;;;;;;4.60;4.17;;;17.00;99.90;;;;;;5078672;28;20540;-75
2022/06/09 07:23:10;;;;;;;4.90;4.50;;;17.00;99.90;;;;;;5076138;28;20889;-76
2022/06/09 07:26:00;;;;;;;4.70;4.30;;;17.00;99.90;;;;;;5075375;28;20481;-75
2022/06/09 07:28:49;;;;;;;4.87;4.47;;;16.90;99.90;;;;;;5070764;28;20474;-77
2022/06/09 07:31:38;;;;;;;5.30;4.90;;;17.00;99.90;;;;;;5070285;28;20452;-76
2022/06/09 07:34:27;;;;;;;5.30;4.90;;;17.00;99.90;;;;;;5073646;28;20481;-75
2022/06/09 07:37:16;;;;;;;4.97;4.57;;;17.00;99.90;;;;;;5072256;28;20548;-79
2022/06/09 07:40:05;;;;;;;4.90;4.60;;;17.00;99.90;;;;;;5077320;28;20453;-75
2022/06/09 07:42:55;;;;;;;5.80;5.30;;;17.00;99.90;;;;;;5065863;28;20607;-74
2022/06/09 07:45:44;;;;;;;4.87;4.40;;;17.00;99.90;;;;;;5077095;28;20492;-75
2022/06/09 07:48:33;;;;;;;6.17;5.67;;;17.00;99.90;;;;;;5074368;28;20508;-75
2022/06/09 07:51:36;;;;;;;6.40;5.90;;;17.00;99.90;;;;;;5077847;28;20569;-74
2022/06/09 07:54:25;;;;;;;6.80;6.20;;;17.00;99.90;;;;;;5077793;28;20566;-76
2022/06/09 07:57:14;;;;;;;6.43;5.83;;;17.00;99.90;;;;;;5077073;28;20554;-75
2022/06/09 08:00:05;;;;;;;6.13;5.63;;;17.10;99.90;;;;;;5068504;28;20454;-75
2022/06/09 08:02:54;;;;;;;7.30;6.60;;;17.10;99.90;;;;;;5073575;28;20546;-77
2022/06/09 08:05:42;;;;;;;5.80;5.30;;;17.20;99.90;;;;;;5075550;28;20453;-75
2022/06/09 08:08:40;;;;;;;6.80;6.20;;;17.20;99.90;;;;;;5065161;28;20941;-75
2022/06/09 08:11:32;;;;;;;6.83;6.00;;;17.20;99.90;;;;;;5069603;28;20625;-76
2022/06/09 08:14:22;;;;;;;6.83;6.23;;;17.30;99.90;;;;;;5063448;28;20472;-75
2022/06/09 08:17:11;;;;;;;6.77;6.17;;;17.30;99.90;;;;;;5072724;28;20553;-75
2022/06/09 08:20:02;;;;;;;7.27;6.57;;;17.40;99.90;;;;;;5073229;28;20472;-76
2022/06/09 08:22:50;;;;;;;7.37;6.77;;;17.50;99.90;;;;;;5071920;28;20889;-77
2022/06/09 08:25:40;;;;;;;7.23;6.53;;;17.50;99.90;;;;;;5070429;28;20544;-76
2022/06/09 08:28:29;;;;;;;5.70;5.30;;;17.50;99.90;;;;;;5069923;28;20483;-76
2022/06/09 08:31:17;;;;;;;5.37;4.87;;;17.50;99.90;;;;;;5072144;28;20453;-76
2022/06/09 08:34:08;;;;;;;6.13;5.53;;;17.50;99.90;;;;;;5068221;28;20989;-76
2022/06/09 08:36:57;;;;;;;5.30;4.90;;;17.50;99.90;;;;;;5067927;28;20648;-76
2022/06/09 08:39:45;;;;;;;5.50;5.00;;;17.50;99.90;;;;;;5075664;28;20482;-76
2022/06/09 08:42:42;;;;;;;6.30;5.80;;;17.60;99.90;;;;;;5073029;28;20851;-76
2022/06/09 08:45:35;;;;;;;5.83;5.33;;;17.70;99.90;;;;;;5068544;28;20465;-75
2022/06/09 08:48:25;;;;;;;6.23;5.50;;;17.70;99.90;;;;;;5069675;28;20582;-76
2022/06/09 08:51:30;;;;;;;7.13;6.53;;;17.70;99.90;;;;;;5068298;28;20456;-77
2022/06/09 08:54:23;;;;;;;6.93;5.87;;;17.70;99.90;;;;;;5070757;28;20559;-76
2022/06/09 08:57:17;;;;;;;7.30;6.60;;;17.70;99.90;;;;;;5070694;28;20500;-76
2022/06/09 09:00:06;;;;;;;7.47;6.77;;;17.70;99.90;;;;;;5062437;28;20552;-80
2022/06/09 09:03:01;;;;;;;8.53;6.77;;;17.70;99.90;;;;;;5070254;28;20625;-76
2022/06/09 09:05:55;;;;;;;6.17;5.57;;;17.70;99.90;;;;;;5074221;28;21072;-76
2022/06/09 09:08:45;;;;;;;4.93;4.53;;;17.70;99.90;;;;;;5068785;28;20626;-76
2022/06/09 09:11:47;;;;;;;4.90;4.37;;;17.80;99.90;;;;;;5068931;28;21041;-76
2022/06/09 09:14:39;;;;;;;4.90;4.50;;;17.80;99.90;;;;;;5069133;28;21034;-76
2022/06/09 09:17:37;;;;;;;4.53;4.17;;;17.90;99.90;;;;;;5072469;28;20500;-75
2022/06/09 09:20:33;;;;;;;5.33;4.83;;;17.90;99.90;;;;;;5073627;28;20449;-76
2022/06/09 09:23:27;;;;;;;7.20;5.70;;;17.90;99.90;;;;;;5070138;28;21037;-76
2022/06/09 09:26:26;;;;;;;5.17;4.77;;;17.90;99.90;;;;;;5070134;28;20600;-76
2022/06/09 09:29:20;;;;;;;4.87;4.47;;;17.90;99.90;;;;;;5063088;28;20481;-75
2022/06/09 09:32:13;;;;;;;6.07;5.57;;;18.00;99.90;;;;;;5068790;28;20450;-77
2022/06/09 09:35:02;;;;;;;4.80;4.50;;;18.00;99.90;;;;;;5071003;28;20642;-76
2022/06/09 09:37:52;;;;;;;7.77;5.77;;;18.00;99.90;;;;;;5071581;28;20618;-75
2022/06/09 09:40:44;;;;;;;6.73;6.13;;;18.10;99.90;;;;;;5071841;28;20461;-77
2022/06/09 09:43:40;;;;;;;7.23;6.53;;;18.10;99.90;;;;;;5069083;28;20484;-76
2022/06/09 09:46:31;;;;;;;8.07;6.53;;;18.10;99.90;;;;;;5070363;28;20442;-76
2022/06/09 09:49:26;;;;;;;6.97;6.27;;;18.10;99.90;;;;;;5071085;28;20563;-77
2022/06/09 09:52:35;;;;;;;6.03;5.43;;;18.10;99.90;;;;;;5074940;28;20530;-76
2022/06/09 09:55:27;;;;;;;5.43;4.97;;;18.20;99.90;;;;;;5066443;28;20461;-76
2022/06/09 09:58:33;;;;;;;5.37;4.93;;;18.30;99.90;;;;;;5071796;28;20648;-76
2022/06/09 10:08:35;;;;;;;6.10;4.50;;;18.40;99.90;;;;;;5071917;28;20798;-80
2022/06/09 10:08:39;;;;;;;6.03;5.03;;;18.50;99.90;;;;;;5070723;28;20493;-76
2022/06/09 10:11:54;;;;;;;5.60;5.20;;;18.60;99.90;;;;;;5069294;28;20454;-75
2022/06/09 10:15:05;;;;;;;5.93;5.43;;;18.60;99.90;;;;;;5069866;28;20504;-76
2022/06/09 10:18:19;;;;;;;5.07;4.50;;;18.60;99.90;;;;;;5071486;28;20477;-78
2022/06/09 10:21:25;;;;;;;4.80;4.30;;;18.60;99.90;;;;;;5070257;28;20506;-78
2022/06/09 10:24:16;;;;;;;4.43;4.03;;;18.60;99.90;;;;;;5066441;28;20485;-76
2022/06/09 10:27:32;;;;;;;5.23;4.70;;;18.60;99.90;;;;;;5062971;28;20490;-77
2022/06/09 10:30:28;;;;;;;4.73;4.27;;;18.60;99.90;;;;;;5067731;28;20519;-76
2022/06/09 10:33:35;;;;;;;5.30;4.90;;;18.60;99.90;;;;;;5069302;28;20444;-75
2022/06/09 10:36:28;;;;;;;6.03;5.53;;;18.70;99.90;;;;;;5069761;28;20548;-75
2022/06/09 10:39:24;;;;;;;6.10;5.50;;;18.80;99.90;;;;;;5071143;28;20555;-75
2022/06/09 10:42:24;;;;;;;6.10;5.60;;;18.80;99.90;;;;;;5065304;28;20579;-77
2022/06/09 10:45:26;;;;;;;6.33;5.03;;;18.90;99.90;;;;;;5068251;28;21119;-78
2022/06/09 10:57:59;;;;;;;5.87;5.37;;;19.10;99.90;;;;;;5072967;28;21044;-76
2022/06/09 11:00:49;;;;;;;6.17;5.47;;;19.00;99.90;;;;;;5071331;28;20452;-75
2022/06/09 11:03:44;;;;;;;5.70;5.30;;;19.10;99.90;;;;;;5076959;28;20590;-75
2022/06/09 11:07:10;;;;;;;5.53;5.13;;;19.20;99.90;;;;;;5076003;28;20920;-75
2022/06/09 11:10:10;;;;;;;5.80;5.40;;;19.20;99.90;;;;;;5069841;28;21059;-75
2022/06/09 11:13:22;;;;;;;5.10;4.70;;;19.30;99.90;;;;;;5069578;28;20464;-76
2022/06/09 11:16:17;;;;;;;4.80;4.40;;;19.30;99.90;;;;;;5072172;28;20470;-75
2022/06/09 11:19:26;;;;;;;5.17;4.77;;;19.40;99.90;;;;;;5075501;28;20854;-76
2022/06/09 11:22:28;;;;;;;3.93;3.73;;;19.50;99.90;;;;;;5072682;28;20454;-75
2022/06/09 11:25:42;;;;;;;3.50;3.30;;;19.50;99.90;;;;;;5071280;28;20480;-76
2022/06/09 11:28:53;;;;;;;3.13;2.93;;;19.60;99.90;;;;;;5057919;28;20474;-76
2022/06/09 11:31:57;;;;;;;2.70;2.50;;;19.50;99.90;;;;;;5062789;28;20448;-78
2022/06/09 11:35:13;;;;;;;2.83;2.60;;;19.50;99.90;;;;;;5066089;28;20957;-77
2022/06/09 11:38:17;;;;;;;2.67;2.40;;;19.70;99.90;;;;;;5068825;28;20472;-77
2022/06/09 11:41:16;;;;;;;2.40;2.30;;;19.70;99.90;;;;;;5066975;28;20542;-78
2022/06/09 11:44:28;;;;;;;3.30;3.10;;;19.80;99.90;;;;;;5068135;28;20634;-76
2022/06/09 11:47:20;;;;;;;3.50;3.30;;;19.80;99.90;;;;;;5065463;28;20501;-76
2022/06/09 11:50:11;;;;;;;3.63;3.33;;;19.90;99.90;;;;;;5072523;28;20499;-77
2022/06/09 11:53:00;;;;;;;3.57;3.20;;;19.90;99.90;;;;;;5071198;28;20542;-78
2022/06/09 11:56:00;;;;;;;3.20;3.00;;;19.90;99.90;;;;;;5069589;28;20461;-78
2022/06/09 11:58:49;;;;;;;3.50;3.20;;;20.00;99.90;;;;;;5063871;28;20485;-77
2022/06/09 12:02:08;;;;;;;3.63;3.43;;;20.00;99.90;;;;;;5069004;28;20501;-79
2022/06/09 12:05:16;;;;;;;3.90;3.63;;;20.10;99.90;;;;;;5046016;28;21027;-77
2022/06/09 12:08:25;;;;;;;3.73;3.37;;;20.10;99.90;;;;;;5063269;28;20612;-77
2022/06/09 12:11:20;;;;;;;3.90;3.70;;;20.00;99.90;;;;;;5067843;28;22489;-76
2022/06/09 12:14:18;;;;;;;3.73;3.43;;;20.10;99.90;;;;;;5063293;28;20584;-78
2022/06/09 12:17:19;;;;;;;3.70;3.40;;;20.20;99.90;;;;;;5067560;28;21399;-79
2022/06/09 12:20:34;;;;;;;3.40;3.20;;;20.20;99.90;;;;;;5070335;28;20464;-77
2022/06/09 12:23:27;;;;;;;3.50;3.20;;;20.20;99.90;;;;;;5067252;28;21784;-78
2022/06/09 12:26:29;;;;;;;4.10;3.80;;;20.20;99.90;;;;;;5069742;28;20592;-77
2022/06/09 12:29:37;;;;;;;5.30;3.40;;;20.10;99.90;;;;;;5069208;28;20484;-77
2022/06/09 12:32:46;;;;;;;3.90;3.70;;;20.10;99.90;;;;;;5065525;28;20449;-77
2022/06/09 12:35:37;;;;;;;3.40;3.20;;;20.10;99.90;;;;;;5070275;28;20563;-77
2022/06/09 12:38:30;;;;;;;4.47;4.10;;;20.20;99.90;;;;;;5058883;28;20484;-78
2022/06/09 12:41:28;;;;;;;3.57;3.30;;;20.40;99.90;;;;;;5067468;28;20497;-77
2022/06/09 12:44:27;;;;;;;3.03;2.83;;;20.60;99.90;;;;;;5066536;28;20854;-80
2022/06/09 12:47:17;;;;;;;3.80;3.50;;;20.80;99.90;;;;;;5071897;28;21701;-76
2022/06/09 12:50:24;;;;;;;2.73;2.53;;;20.80;99.90;;;;;;5075139;28;20906;-76
2022/06/09 12:53:20;;;;;;;3.60;3.30;;;20.80;99.90;;;;;;5066429;28;20462;-77
2022/06/09 12:56:29;;;;;;;3.00;2.80;;;20.80;99.90;;;;;;5067862;28;21238;-76
2022/06/09 12:59:21;;;;;;;2.60;2.40;;;20.80;99.90;;;;;;5067405;28;20570;-79
2022/06/09 13:02:25;;;;;;;4.83;2.70;;;20.90;99.90;;;;;;5052409;28;20460;-79
2022/06/09 13:05:21;;;;;;;3.00;2.80;;;21.10;99.90;;;;;;5061875;28;20472;-80
2022/06/09 13:08:16;;;;;;;2.43;2.13;;;21.30;99.90;;;;;;5070172;28;20562;-79
2022/06/09 13:11:08;;;;;;;2.20;2.10;;;21.60;99.90;;;;;;5070966;28;20571;-78
2022/06/09 13:14:00;;;;;;;2.43;2.30;;;21.70;99.90;;;;;;5062237;28;20983;-77
2022/06/09 13:16:51;;;;;;;2.83;2.33;;;21.90;99.90;;;;;;5067541;28;20625;-78
2022/06/09 13:19:39;;;;;;;3.60;2.53;;;21.80;99.90;;;;;;5068357;28;20536;-78
2022/06/09 13:22:28;;;;;;;2.40;2.30;;;21.90;99.90;;;;;;5062733;28;20487;-78
2022/06/09 13:25:21;;;;;;;2.70;2.43;;;22.00;99.90;;;;;;5064950;28;20583;-78
2022/06/09 13:28:28;;;;;;;2.67;2.50;;;22.10;99.90;;;;;;5065713;28;20559;-78
2022/06/09 13:31:34;;;;;;;3.97;2.50;;;22.20;99.90;;;;;;5065968;28;20956;-78
2022/06/09 13:34:27;;;;;;;2.53;2.33;;;22.30;99.90;;;;;;5069845;28;20491;-78
2022/06/09 13:37:22;;;;;;;2.67;2.47;;;22.30;99.90;;;;;;5065861;28;22101;-77
2022/06/09 13:40:17;;;;;;;2.37;2.27;;;22.40;99.90;;;;;;5057723;28;20534;-78
2022/06/09 13:43:05;;;;;;;3.23;2.60;;;22.40;99.90;;;;;;5066428;28;20461;-77
2022/06/09 13:46:02;;;;;;;2.70;2.50;;;22.60;99.90;;;;;;5063259;28;21961;-78
2022/06/09 13:48:57;;;;;;;2.63;2.43;;;22.60;99.90;;;;;;5059455;28;20745;-79
2022/06/09 13:52:01;;;;;;;2.63;2.43;;;22.60;99.90;;;;;;5062839;28;20446;-78
2022/06/09 13:54:51;;;;;;;2.47;2.37;;;22.70;99.90;;;;;;5064155;28;20542;-78
2022/06/09 13:57:42;;;;;;;3.57;2.20;;;22.80;99.90;;;;;;5067980;28;20481;-78
2022/06/09 14:00:45;;;;;;;2.50;2.30;;;22.80;99.90;;;;;;5066513;28;20532;-80
2022/06/09 14:03:35;;;;;;;3.80;2.70;;;22.70;99.90;;;;;;5061214;28;20937;-78
2022/06/09 14:06:25;;;;;;;2.40;2.20;;;22.70;99.90;;;;;;5071183;28;20500;-78
2022/06/09 14:09:15;;;;;;;2.40;2.20;;;22.60;99.90;;;;;;5056883;28;20992;-78
2022/06/09 14:12:04;;;;;;;2.67;2.23;;;22.50;99.90;;;;;;5063856;28;20468;-79
2022/06/09 14:15:01;;;;;;;3.00;2.37;;;22.50;99.90;;;;;;5057534;28;20536;-77
2022/06/09 14:17:55;;;;;;;2.90;2.70;;;22.60;99.90;;;;;;5071680;28;20482;-79
2022/06/09 14:20:44;;;;;;;2.60;2.40;;;22.70;99.90;;;;;;5068710;28;20452;-77
2022/06/09 14:23:36;;;;;;;2.60;2.43;;;22.90;99.90;;;;;;5071804;28;20500;-76
2022/06/09 14:26:33;;;;;;;2.27;2.07;;;23.00;99.90;;;;;;5071798;28;20623;-76
2022/06/09 14:29:23;;;;;;;2.63;2.30;;;23.00;99.90;;;;;;5070254;28;20523;-77
2022/06/09 14:32:16;;;;;;;2.93;2.30;;;23.00;99.90;;;;;;5064170;28;22822;-79
2022/06/09 14:35:06;;;;;;;3.80;2.47;;;23.10;99.90;;;;;;5065694;28;20484;-78
2022/06/09 14:37:54;;;;;;;2.20;2.07;;;23.00;99.90;;;;;;5065904;28;20992;-77
2022/06/09 14:40:48;;;;;;;2.50;1.90;;;23.00;99.90;;;;;;5074060;28;20606;-77
2022/06/09 14:43:40;;;;;;;1.90;1.80;;;22.80;99.90;;;;;;5074307;28;20484;-78
2022/06/09 14:46:32;;;;;;;2.03;1.83;;;22.70;99.90;;;;;;5070886;28;20480;-77
2022/06/09 14:49:22;;;;;;;5.63;1.80;;;22.70;99.90;;;;;;5065035;28;20476;-78
2022/06/09 14:52:12;;;;;;;2.27;1.30;;;22.80;99.90;;;;;;5076172;28;21251;-77
2022/06/09 14:55:01;;;;;;;3.10;1.40;;;22.80;99.90;;;;;;5073961;28;20477;-77
2022/06/09 14:57:50;;;;;;;2.07;1.50;;;22.80;99.90;;;;;;5072448;28;20484;-77
2022/06/09 15:00:40;;;;;;;2.87;1.40;;;23.00;99.90;;;;;;5075748;28;20555;-79
2022/06/09 15:03:29;;;;;;;1.67;1.53;;;23.10;99.90;;;;;;5074276;28;20469;-77
2022/06/09 15:06:22;;;;;;;1.33;1.23;;;23.00;99.90;;;;;;5074035;28;20482;-78
2022/06/09 15:09:13;;;;;;;3.20;1.40;;;23.00;99.90;;;;;;5073514;28;20583;-77
2022/06/09 15:12:01;;;;;;;3.23;1.40;;;23.10;99.90;;;;;;5072677;28;20576;-78
2022/06/09 15:14:51;;;;;;;2.20;1.40;;;23.30;99.90;;;;;;5066154;28;20484;-77
2022/06/09 15:17:39;;;;;;;1.70;1.13;;;23.40;99.90;;;;;;5074394;28;20509;-77
2022/06/09 15:20:30;;;;;;;1.77;1.40;;;23.60;99.90;;;;;;5065545;28;20441;-76
2022/06/09 15:23:18;;;;;;;1.77;1.20;;;23.70;99.90;;;;;;5070180;28;20587;-77
2022/06/09 15:26:07;;;;;;;2.97;1.40;;;23.50;99.90;;;;;;5074902;28;20508;-77
2022/06/09 15:28:55;;;;;;;1.70;1.20;;;23.40;99.90;;;;;;5076136;28;20505;-77
2022/06/09 15:31:45;;;;;;;2.37;1.60;;;23.40;99.90;;;;;;5090336;28;20484;-77